Time;durP1;ratioP1;P1;durP2;ratioP2;P2;SDS_P1;SDS_P2;PMS_P1;PMS_P2;Temp;Humidity;BMP_temperature;BMP_pressure;BME280_temperature;BME280_humidity;BME280_pressure;Samples;Min_cycle;Max_cycle;Signal;HPM_P1;HPM_P2
2024/02/23 00:02:17;;;;;;;5.43;0.80;;;7.00;99.90;;;;;;7309416;19;20199;-80
2024/02/23 00:04:44;;;;;;;5.67;0.80;;;7.00;99.90;;;;;;7289520;19;20196;-80
2024/02/23 00:07:10;;;;;;;7.60;0.87;;;6.90;99.90;;;;;;7289262;19;20615;-80
2024/02/23 00:09:36;;;;;;;5.20;0.77;;;6.90;99.90;;;;;;7288164;19;20672;-80
2024/02/23 00:12:03;;;;;;;4.83;0.80;;;7.00;99.90;;;;;;7289963;19;20193;-80
2024/02/23 00:14:30;;;;;;;4.53;0.70;;;7.10;99.90;;;;;;7288686;19;20202;-80
2024/02/23 00:16:57;;;;;;;3.87;0.70;;;7.00;99.90;;;;;;7289403;19;20193;-80
2024/02/23 00:19:24;;;;;;;4.93;1.10;;;6.90;99.90;;;;;;7288692;19;20239;-80
2024/02/23 00:21:50;;;;;;;4.53;0.97;;;6.90;99.90;;;;;;7295647;19;20755;-79
2024/02/23 00:24:21;;;;;;;6.07;0.97;;;6.80;99.90;;;;;;7312339;19;20197;-80
2024/02/23 00:26:48;;;;;;;5.13;1.03;;;6.80;99.90;;;;;;7288516;19;20188;-79
2024/02/23 00:29:14;;;;;;;6.20;0.90;;;6.80;99.90;;;;;;7289070;19;20225;-80
2024/02/23 00:31:42;;;;;;;3.73;0.80;;;6.70;99.90;;;;;;7287737;19;20190;-80
2024/02/23 00:34:13;;;;;;;5.03;0.63;;;6.70;99.90;;;;;;7287011;19;21617;-80
2024/02/23 00:36:42;;;;;;;5.10;0.87;;;6.80;99.90;;;;;;7288983;19;20207;-80
2024/02/23 00:39:08;;;;;;;5.17;0.80;;;6.80;99.90;;;;;;7287000;19;20190;-80
2024/02/23 00:41:36;;;;;;;5.97;0.77;;;6.90;99.90;;;;;;7288068;19;20196;-80
2024/02/23 00:44:03;;;;;;;5.70;0.90;;;7.00;99.90;;;;;;7287921;19;20933;-80
2024/02/23 00:46:29;;;;;;;4.10;0.73;;;6.90;99.90;;;;;;7287061;19;20215;-80
2024/02/23 00:48:55;;;;;;;6.80;0.73;;;7.00;99.90;;;;;;7286997;19;20185;-80
2024/02/23 00:51:20;;;;;;;7.57;1.10;;;7.00;99.90;;;;;;7286040;19;20192;-79
2024/02/23 00:53:46;;;;;;;4.80;0.90;;;6.90;99.90;;;;;;7309017;19;20191;-79
2024/02/23 00:56:12;;;;;;;5.13;0.90;;;7.00;99.90;;;;;;7285821;19;20248;-80
2024/02/23 00:58:39;;;;;;;6.70;0.90;;;6.90;99.90;;;;;;7286178;19;20192;-80
2024/02/23 01:01:05;;;;;;;7.87;1.13;;;6.80;99.90;;;;;;7286782;19;20779;-79
2024/02/23 01:03:30;;;;;;;8.90;0.83;;;6.70;99.90;;;;;;7286890;19;20216;-80
2024/02/23 01:05:56;;;;;;;6.37;0.90;;;6.60;99.90;;;;;;7283593;19;20264;-80
2024/02/23 01:08:22;;;;;;;7.23;1.10;;;6.60;99.90;;;;;;7286161;19;20196;-79
2024/02/23 01:10:47;;;;;;;4.13;1.00;;;6.60;99.90;;;;;;7307895;19;20554;-80
2024/02/23 01:13:13;;;;;;;6.63;1.37;;;6.60;99.90;;;;;;7286643;19;20193;-79
2024/02/23 01:15:39;;;;;;;4.50;0.80;;;6.60;99.90;;;;;;7286753;19;20178;-79
2024/02/23 01:18:08;;;;;;;4.20;0.70;;;6.50;99.90;;;;;;7287023;19;20185;-79
2024/02/23 01:20:34;;;;;;;5.03;0.97;;;6.50;99.90;;;;;;7285857;19;20273;-80
2024/02/23 01:23:00;;;;;;;6.17;1.00;;;6.50;99.90;;;;;;7285136;19;20564;-79
2024/02/23 01:25:26;;;;;;;5.13;1.13;;;6.40;99.90;;;;;;7284749;19;20200;-80
2024/02/23 01:27:52;;;;;;;6.97;0.97;;;6.60;99.90;;;;;;7286094;19;20200;-80
2024/02/23 01:30:18;;;;;;;4.37;0.83;;;6.50;99.90;;;;;;7308723;19;20184;-80
2024/02/23 01:32:45;;;;;;;5.33;0.80;;;6.60;99.90;;;;;;7287644;19;20802;-80
2024/02/23 01:35:11;;;;;;;5.03;0.90;;;6.60;99.90;;;;;;7287149;19;20192;-80
2024/02/23 01:37:36;;;;;;;6.87;0.97;;;6.60;99.90;;;;;;7285278;19;20200;-80
2024/02/23 01:40:03;;;;;;;5.00;0.77;;;6.60;99.90;;;;;;7285565;19;20686;-80
2024/02/23 01:42:29;;;;;;;5.10;0.90;;;6.60;99.90;;;;;;7285996;19;20651;-79
2024/02/23 01:44:57;;;;;;;4.33;1.03;;;6.50;99.90;;;;;;7287772;19;20247;-81
2024/02/23 01:47:24;;;;;;;6.27;1.27;;;6.50;99.90;;;;;;7285487;19;20192;-79
2024/02/23 01:49:51;;;;;;;5.90;0.90;;;6.50;99.90;;;;;;7288849;19;20216;-80
2024/02/23 01:52:17;;;;;;;7.77;0.90;;;6.50;99.90;;;;;;7308919;19;20180;-80
2024/02/23 01:54:44;;;;;;;6.50;1.00;;;6.60;99.90;;;;;;7284837;19;20206;-80
2024/02/23 01:57:10;;;;;;;10.17;1.20;;;6.60;99.90;;;;;;7286311;19;20190;-79
2024/02/23 01:59:37;;;;;;;8.20;1.20;;;6.60;99.90;;;;;;7285643;19;20195;-80
2024/02/23 02:02:04;;;;;;;7.47;0.90;;;6.70;99.90;;;;;;7284988;19;20315;-80
2024/02/23 02:04:30;;;;;;;8.10;1.63;;;6.70;99.90;;;;;;7285727;19;20187;-79
2024/02/23 02:06:58;;;;;;;9.63;1.63;;;6.70;99.90;;;;;;7286526;19;20269;-79
2024/02/23 02:09:25;;;;;;;11.63;1.83;;;6.70;99.90;;;;;;7286907;19;20201;-80
2024/02/23 02:11:50;;;;;;;7.50;1.50;;;6.90;99.90;;;;;;7285526;19;20219;-78
2024/02/23 02:14:17;;;;;;;9.37;1.50;;;7.00;99.90;;;;;;7307831;19;20189;-80
2024/02/23 02:16:46;;;;;;;10.53;1.60;;;7.00;99.90;;;;;;7286617;19;20967;-80
2024/02/23 02:19:12;;;;;;;6.73;1.43;;;7.00;99.90;;;;;;7284012;19;20215;-81
2024/02/23 02:21:39;;;;;;;7.57;1.40;;;7.00;99.90;;;;;;7284351;19;20255;-81
2024/02/23 02:24:05;;;;;;;8.07;1.63;;;6.90;99.90;;;;;;7285796;19;20609;-80
2024/02/23 02:26:31;;;;;;;8.23;1.93;;;7.00;99.90;;;;;;7285754;19;20189;-81
2024/02/23 02:28:56;;;;;;;10.37;2.50;;;6.90;99.90;;;;;;7284601;19;20193;-80
2024/02/23 02:31:22;;;;;;;13.87;2.97;;;6.80;99.90;;;;;;7285262;19;20215;-80
2024/02/23 02:33:48;;;;;;;13.20;2.70;;;6.90;99.90;;;;;;7306447;19;20195;-81
2024/02/23 02:36:14;;;;;;;13.93;2.87;;;7.00;99.90;;;;;;7286602;19;20193;-81
2024/02/23 02:38:40;;;;;;;12.30;2.83;;;7.10;99.90;;;;;;7284006;19;20612;-80
2024/02/23 02:41:06;;;;;;;10.37;2.37;;;7.20;99.90;;;;;;7282919;19;20652;-81
2024/02/23 02:43:32;;;;;;;13.47;2.80;;;7.10;99.90;;;;;;7286120;19;20185;-80
2024/02/23 02:45:58;;;;;;;12.43;2.40;;;7.10;99.90;;;;;;7284088;19;20551;-80
2024/02/23 02:48:24;;;;;;;15.40;2.77;;;7.00;99.90;;;;;;7284716;19;20186;-81
2024/02/23 02:50:51;;;;;;;11.60;2.30;;;7.00;99.90;;;;;;7289239;19;20295;-80
2024/02/23 02:53:17;;;;;;;11.73;2.70;;;7.00;99.90;;;;;;7306713;19;20289;-81
2024/02/23 02:55:44;;;;;;;13.93;2.47;;;7.10;99.90;;;;;;7283031;19;20194;-80
2024/02/23 02:58:11;;;;;;;10.23;2.40;;;7.10;99.90;;;;;;7284255;19;20190;-80
2024/02/23 03:00:37;;;;;;;11.27;2.47;;;7.10;99.90;;;;;;7283036;19;20189;-80
2024/02/23 03:03:03;;;;;;;13.77;2.60;;;7.00;99.90;;;;;;7284203;19;20513;-80
2024/02/23 03:05:29;;;;;;;14.13;2.60;;;7.10;99.90;;;;;;7282159;19;20185;-80
2024/02/23 03:07:54;;;;;;;11.37;2.13;;;7.00;99.90;;;;;;7282628;19;20642;-81
2024/02/23 03:10:20;;;;;;;8.53;2.00;;;7.00;99.90;;;;;;7288710;19;20199;-81
2024/02/23 03:12:46;;;;;;;13.20;2.00;;;7.20;99.90;;;;;;7303482;19;21042;-81
2024/02/23 03:15:12;;;;;;;7.77;2.10;;;7.20;99.90;;;;;;7282212;19;20623;-81
2024/02/23 03:17:38;;;;;;;10.80;3.33;;;7.20;99.90;;;;;;7281629;19;20576;-81
2024/02/23 03:20:11;;;;;;;11.43;3.13;;;7.20;99.90;;;;;;7279260;19;20190;-81
2024/02/23 03:22:37;;;;;;;13.33;3.03;;;7.20;99.90;;;;;;7281473;19;20203;-81
2024/02/23 03:25:08;;;;;;;10.23;2.73;;;7.20;99.90;;;;;;7280908;19;20185;-81
2024/02/23 03:27:38;;;;;;;10.80;2.60;;;7.10;99.90;;;;;;7279545;19;20728;-81
2024/02/23 03:30:05;;;;;;;16.67;3.20;;;7.20;99.90;;;;;;7285573;19;20195;-80
2024/02/23 03:32:36;;;;;;;13.67;2.63;;;7.20;99.90;;;;;;7286946;19;20196;-81
2024/02/23 03:35:03;;;;;;;10.00;2.90;;;7.20;99.90;;;;;;7288039;19;20212;-80
2024/02/23 03:37:29;;;;;;;15.67;2.77;;;7.30;99.90;;;;;;7288561;19;20201;-81
2024/02/23 03:39:54;;;;;;;14.33;2.90;;;7.20;99.90;;;;;;7287449;19;20611;-81
2024/02/23 03:42:20;;;;;;;13.70;2.43;;;7.40;99.90;;;;;;7294699;19;20197;-80
2024/02/23 03:44:45;;;;;;;12.47;2.60;;;7.30;99.90;;;;;;7310483;19;20240;-81
2024/02/23 03:47:12;;;;;;;9.40;2.90;;;7.20;99.90;;;;;;7288062;19;20193;-81
2024/02/23 03:49:37;;;;;;;14.70;2.20;;;7.20;99.90;;;;;;7289643;19;20204;-81
2024/02/23 03:52:04;;;;;;;11.00;2.23;;;7.30;99.90;;;;;;7289444;19;20660;-81
2024/02/23 03:54:31;;;;;;;12.57;2.03;;;7.30;99.90;;;;;;7289665;19;20222;-81
2024/02/23 03:56:57;;;;;;;10.20;2.03;;;7.30;99.90;;;;;;7289624;19;20181;-80
2024/02/23 03:59:23;;;;;;;13.67;2.40;;;7.20;99.90;;;;;;7289030;19;20202;-81
2024/02/23 04:01:49;;;;;;;12.23;2.40;;;7.20;99.90;;;;;;7306372;19;20256;-80
2024/02/23 04:04:15;;;;;;;16.13;2.77;;;7.20;99.90;;;;;;7302359;19;20724;-81
2024/02/23 04:06:41;;;;;;;9.63;2.40;;;7.20;99.90;;;;;;7286473;19;20197;-81
2024/02/23 04:09:08;;;;;;;13.53;2.80;;;7.30;99.90;;;;;;7288527;19;20189;-81
2024/02/23 04:11:34;;;;;;;10.70;2.47;;;7.40;99.90;;;;;;7288869;19;20197;-81
2024/02/23 04:14:00;;;;;;;14.90;2.60;;;7.40;99.90;;;;;;7288070;19;20264;-81
2024/02/23 04:16:26;;;;;;;13.67;2.63;;;7.30;99.90;;;;;;7290021;19;20189;-81
2024/02/23 04:18:53;;;;;;;13.87;2.60;;;7.30;99.90;;;;;;7288061;19;20202;-79
2024/02/23 04:21:19;;;;;;;15.73;2.60;;;7.30;99.90;;;;;;7309291;19;20267;-80
2024/02/23 04:23:45;;;;;;;11.73;2.50;;;7.20;99.90;;;;;;7289179;19;20211;-81
2024/02/23 04:26:10;;;;;;;13.17;2.80;;;7.20;99.90;;;;;;7286418;19;20204;-81
2024/02/23 04:28:40;;;;;;;11.30;2.50;;;7.20;99.90;;;;;;7287200;19;20197;-81
2024/02/23 04:31:07;;;;;;;13.93;2.87;;;7.20;99.90;;;;;;7287625;19;20188;-81
2024/02/23 04:33:35;;;;;;;10.30;2.73;;;7.20;99.90;;;;;;7287478;19;20189;-81
2024/02/23 04:36:01;;;;;;;13.67;2.73;;;7.30;99.90;;;;;;7287773;19;20186;-81
2024/02/23 04:38:26;;;;;;;13.40;3.13;;;7.40;99.90;;;;;;7287239;19;20201;-81
2024/02/23 04:40:52;;;;;;;16.00;3.13;;;7.50;99.90;;;;;;7284705;19;20206;-81
2024/02/23 04:43:18;;;;;;;11.57;2.90;;;7.50;99.90;;;;;;7309502;19;20199;-81
2024/02/23 04:45:43;;;;;;;13.87;3.10;;;7.40;99.90;;;;;;7285473;19;20727;-80
2024/02/23 04:48:10;;;;;;;12.73;2.87;;;7.40;99.90;;;;;;7286749;19;20201;-81
2024/02/23 04:50:35;;;;;;;13.77;2.87;;;7.30;99.90;;;;;;7287439;19;20560;-81
2024/02/23 04:53:02;;;;;;;8.37;1.63;;;7.30;99.90;;;;;;7287263;19;20197;-81
2024/02/23 04:55:27;;;;;;;10.50;1.80;;;7.20;99.90;;;;;;7286971;19;20185;-81
2024/02/23 04:57:53;;;;;;;8.43;1.80;;;7.10;99.90;;;;;;7286797;19;20192;-80
2024/02/23 05:00:19;;;;;;;13.87;1.50;;;7.10;99.90;;;;;;7308909;19;20252;-81
2024/02/23 05:02:46;;;;;;;9.27;1.47;;;7.10;99.90;;;;;;7288262;19;20193;-81
2024/02/23 05:05:12;;;;;;;9.77;1.80;;;7.10;99.90;;;;;;7286686;19;20193;-81
2024/02/23 05:07:38;;;;;;;8.83;1.37;;;7.00;99.90;;;;;;7286185;19;20654;-81
2024/02/23 05:10:04;;;;;;;9.63;1.40;;;7.00;99.90;;;;;;7287604;19;20203;-81
2024/02/23 05:12:30;;;;;;;8.87;1.53;;;7.00;99.90;;;;;;7285606;19;20193;-81
2024/02/23 05:14:56;;;;;;;13.50;1.70;;;7.00;99.90;;;;;;7285665;19;20510;-80
2024/02/23 05:17:23;;;;;;;14.03;1.50;;;7.10;99.90;;;;;;7285535;19;20536;-80
2024/02/23 05:19:48;;;;;;;11.23;1.80;;;7.10;99.90;;;;;;7307769;19;20204;-82
2024/02/23 05:22:14;;;;;;;7.57;1.40;;;7.10;99.90;;;;;;7286305;19;20579;-81
2024/02/23 05:24:40;;;;;;;10.60;1.50;;;7.10;99.90;;;;;;7285474;19;20182;-81
2024/02/23 05:27:06;;;;;;;11.40;1.80;;;7.10;99.90;;;;;;7284754;19;20262;-81
2024/02/23 05:29:31;;;;;;;11.27;1.60;;;7.10;99.90;;;;;;7284761;19;20204;-80
2024/02/23 05:31:57;;;;;;;11.87;1.90;;;7.00;99.90;;;;;;7284533;19;20184;-81
2024/02/23 05:34:23;;;;;;;9.53;1.30;;;6.90;99.90;;;;;;7284902;19;20729;-80
2024/02/23 05:36:50;;;;;;;11.20;1.67;;;6.90;99.90;;;;;;7307517;19;20850;-81
2024/02/23 05:39:17;;;;;;;12.33;2.10;;;6.90;99.90;;;;;;7286105;19;20198;-81
2024/02/23 05:41:43;;;;;;;11.70;1.60;;;6.90;99.90;;;;;;7285096;19;20196;-80
2024/02/23 05:44:09;;;;;;;11.80;1.60;;;7.00;99.90;;;;;;7286506;19;20905;-80
2024/02/23 05:46:36;;;;;;;8.47;1.67;;;7.00;99.90;;;;;;7284516;19;20189;-80
2024/02/23 05:49:02;;;;;;;11.00;1.47;;;7.10;99.90;;;;;;7286610;19;20185;-80
2024/02/23 05:51:31;;;;;;;7.43;1.43;;;7.20;99.90;;;;;;7283023;19;20256;-79
2024/02/23 05:53:58;;;;;;;11.00;1.40;;;7.10;99.90;;;;;;7285467;19;20190;-80
2024/02/23 05:56:24;;;;;;;12.50;1.80;;;7.10;99.90;;;;;;7284583;19;20220;-80
2024/02/23 05:58:51;;;;;;;12.80;1.60;;;7.00;99.90;;;;;;7298712;19;20189;-79
2024/02/23 06:01:18;;;;;;;11.03;1.57;;;6.90;99.90;;;;;;7305227;19;20181;-80
2024/02/23 06:03:44;;;;;;;11.30;1.70;;;6.90;99.90;;;;;;7286400;19;20200;-80
2024/02/23 06:06:10;;;;;;;9.03;1.67;;;6.90;99.90;;;;;;7285169;19;20309;-80
2024/02/23 06:08:36;;;;;;;8.73;1.57;;;7.00;99.90;;;;;;7283384;19;20200;-81
2024/02/23 06:11:03;;;;;;;14.57;1.67;;;7.10;99.90;;;;;;7287068;19;20205;-81
2024/02/23 06:13:32;;;;;;;12.03;1.77;;;7.10;99.90;;;;;;7286010;19;20216;-80
2024/02/23 06:15:59;;;;;;;13.87;1.87;;;7.20;99.90;;;;;;7284716;19;20244;-80
2024/02/23 06:18:24;;;;;;;8.87;1.57;;;7.20;99.90;;;;;;7285037;19;20313;-80
2024/02/23 06:20:50;;;;;;;15.87;2.10;;;7.20;99.90;;;;;;7294872;19;20228;-80
2024/02/23 06:23:17;;;;;;;10.33;1.50;;;7.10;99.90;;;;;;7302889;19;20189;-80
2024/02/23 06:25:44;;;;;;;13.90;1.93;;;7.10;99.90;;;;;;7283648;19;20197;-80
2024/02/23 06:28:10;;;;;;;10.67;1.67;;;7.00;99.90;;;;;;7285552;19;20276;-80
2024/02/23 06:30:36;;;;;;;9.20;1.50;;;7.00;99.90;;;;;;7284098;19;20188;-81
2024/02/23 06:33:02;;;;;;;12.17;1.80;;;7.00;99.90;;;;;;7284219;19;20623;-81
2024/02/23 06:35:28;;;;;;;11.10;1.40;;;7.10;99.90;;;;;;7284577;19;20189;-81
2024/02/23 06:37:53;;;;;;;6.23;1.83;;;7.00;99.90;;;;;;7284549;19;20599;-82
2024/02/23 06:40:19;;;;;;;12.90;1.80;;;7.00;99.90;;;;;;7305558;19;20194;-77
2024/02/23 06:42:45;;;;;;;9.50;1.67;;;7.00;99.90;;;;;;7293692;19;20185;-79
2024/02/23 06:45:11;;;;;;;12.50;1.80;;;7.10;99.90;;;;;;7282783;19;20177;-79
2024/02/23 06:47:36;;;;;;;8.63;1.60;;;7.20;99.90;;;;;;7282710;19;20199;-79
2024/02/23 06:50:03;;;;;;;11.00;1.93;;;7.20;99.90;;;;;;7282265;19;20260;-80
2024/02/23 06:52:29;;;;;;;17.40;2.07;;;7.40;99.90;;;;;;7282397;19;20195;-79
2024/02/23 06:54:54;;;;;;;13.63;1.63;;;7.50;99.90;;;;;;7285318;19;21128;-79
2024/02/23 06:57:20;;;;;;;8.83;2.03;;;7.60;99.90;;;;;;7292350;19;20553;-79
2024/02/23 06:59:46;;;;;;;12.33;1.80;;;7.60;99.90;;;;;;7301999;19;20185;-79
2024/02/23 07:02:11;;;;;;;11.57;1.60;;;7.60;99.90;;;;;;7282929;19;20259;-80
2024/02/23 07:04:37;;;;;;;14.07;1.80;;;7.60;99.90;;;;;;7285774;19;20212;-79
2024/02/23 07:07:07;;;;;;;14.73;1.57;;;7.60;99.90;;;;;;7283487;19;20193;-80
2024/02/23 07:09:33;;;;;;;10.77;2.20;;;7.40;99.90;;;;;;7283283;19;20226;-78
2024/02/23 07:11:59;;;;;;;10.03;1.83;;;7.50;99.90;;;;;;7283041;19;20201;-78
2024/02/23 07:14:25;;;;;;;14.40;1.90;;;7.60;99.90;;;;;;7282828;19;20670;-78
2024/02/23 07:16:54;;;;;;;13.30;2.70;;;7.60;99.90;;;;;;7291247;19;20212;-78
2024/02/23 07:19:22;;;;;;;9.80;1.63;;;7.60;99.90;;;;;;7301755;19;20214;-76
2024/02/23 07:21:48;;;;;;;10.77;1.50;;;7.60;99.90;;;;;;7303449;19;20207;-78
2024/02/23 07:24:14;;;;;;;10.87;1.50;;;7.60;99.90;;;;;;7283715;19;20192;-79
2024/02/23 07:26:39;;;;;;;10.77;1.73;;;7.60;99.90;;;;;;7283298;19;20329;-78
2024/02/23 07:29:06;;;;;;;8.23;1.67;;;7.60;99.90;;;;;;7280462;19;20197;-78
2024/02/23 07:31:32;;;;;;;8.47;1.67;;;7.50;99.90;;;;;;7281173;19;20192;-78
2024/02/23 07:33:58;;;;;;;10.40;1.60;;;7.50;99.90;;;;;;7280273;19;20591;-77
2024/02/23 07:36:23;;;;;;;11.23;1.40;;;7.70;99.90;;;;;;7281285;19;20895;-77
2024/02/23 07:38:49;;;;;;;8.10;1.90;;;7.80;99.90;;;;;;7301271;19;20220;-76
2024/02/23 07:41:17;;;;;;;12.43;1.73;;;7.80;99.90;;;;;;7290757;19;20621;-77
2024/02/23 07:43:43;;;;;;;8.10;1.57;;;8.00;99.90;;;;;;7282616;19;20173;-77
2024/02/23 07:46:09;;;;;;;10.30;1.63;;;8.00;99.90;;;;;;7280178;19;20330;-77
2024/02/23 07:48:37;;;;;;;6.37;1.33;;;8.20;99.90;;;;;;7280923;19;20182;-77
2024/02/23 07:51:04;;;;;;;8.30;1.40;;;8.20;99.90;;;;;;7281409;19;20200;-78
2024/02/23 07:53:31;;;;;;;11.53;1.73;;;8.20;99.90;;;;;;7281912;19;20252;-77
2024/02/23 07:55:59;;;;;;;11.43;1.57;;;8.10;99.90;;;;;;7281488;19;21048;-78
2024/02/23 07:58:28;;;;;;;11.17;1.93;;;7.90;99.90;;;;;;7281895;19;20204;-77
2024/02/23 08:00:54;;;;;;;11.63;2.43;;;7.90;99.90;;;;;;7281243;19;20278;-78
2024/02/23 08:03:20;;;;;;;14.00;1.80;;;7.90;99.90;;;;;;7299397;19;20198;-74
2024/02/23 08:05:45;;;;;;;9.17;1.53;;;7.80;99.90;;;;;;7293017;19;20196;-76
2024/02/23 08:08:11;;;;;;;10.57;2.20;;;7.80;99.90;;;;;;7280087;19;20268;-76
2024/02/23 08:10:37;;;;;;;12.73;1.50;;;7.60;99.90;;;;;;7276723;19;20197;-78
2024/02/23 08:13:04;;;;;;;9.50;1.60;;;7.60;99.90;;;;;;7282995;19;20663;-78
2024/02/23 08:15:29;;;;;;;8.47;1.50;;;7.40;99.90;;;;;;7283809;19;20189;-78
2024/02/23 08:17:55;;;;;;;10.67;2.30;;;7.20;99.90;;;;;;7287873;19;20577;-78
2024/02/23 08:20:21;;;;;;;9.50;1.43;;;7.10;99.90;;;;;;7290169;19;20297;-78
2024/02/23 08:22:47;;;;;;;9.93;2.37;;;7.00;99.90;;;;;;7307926;19;20547;-78
2024/02/23 08:25:12;;;;;;;10.77;1.50;;;6.90;99.90;;;;;;7289036;19;20199;-77
2024/02/23 08:27:40;;;;;;;13.00;1.70;;;6.80;99.90;;;;;;7286568;19;20189;-79
2024/02/23 08:30:06;;;;;;;11.63;1.93;;;6.80;99.90;;;;;;7287812;19;20188;-76
2024/02/23 08:32:32;;;;;;;9.97;1.70;;;6.80;99.90;;;;;;7287811;19;20204;-77
2024/02/23 08:35:00;;;;;;;11.77;1.67;;;6.90;99.90;;;;;;7287878;19;20185;-77
2024/02/23 08:37:26;;;;;;;13.43;1.57;;;7.10;99.90;;;;;;7289260;19;20238;-77
2024/02/23 08:39:53;;;;;;;8.57;1.50;;;7.20;99.90;;;;;;7283918;19;20228;-76
2024/02/23 08:42:18;;;;;;;10.57;1.60;;;7.40;99.90;;;;;;7308340;19;20187;-77
2024/02/23 08:44:44;;;;;;;10.00;1.90;;;7.40;99.90;;;;;;7287796;19;20230;-77
2024/02/23 08:47:09;;;;;;;11.33;2.13;;;7.50;99.90;;;;;;7286939;19;20212;-76
2024/02/23 08:49:35;;;;;;;9.60;1.63;;;7.40;99.90;;;;;;7286305;19;20189;-77
2024/02/23 08:52:02;;;;;;;8.87;1.77;;;7.40;99.90;;;;;;7287366;19;20644;-77
2024/02/23 08:54:28;;;;;;;10.03;1.47;;;7.40;99.90;;;;;;7285104;19;20195;-78
2024/02/23 08:56:53;;;;;;;11.10;1.70;;;7.30;99.90;;;;;;7284989;19;20185;-77
2024/02/23 08:59:19;;;;;;;10.37;2.10;;;7.30;99.90;;;;;;7307541;19;20193;-78
2024/02/23 09:01:46;;;;;;;11.43;1.60;;;7.30;99.90;;;;;;7283461;19;20187;-77
2024/02/23 09:04:15;;;;;;;11.43;1.60;;;7.30;99.90;;;;;;7281832;19;20259;-77
2024/02/23 09:06:41;;;;;;;7.70;1.50;;;7.30;99.90;;;;;;7283444;19;20178;-77
2024/02/23 09:09:08;;;;;;;12.83;1.90;;;7.50;99.90;;;;;;7284863;19;20193;-78
2024/02/23 09:11:34;;;;;;;8.43;1.53;;;7.60;99.90;;;;;;7285035;19;20189;-78
2024/02/23 09:13:59;;;;;;;10.40;1.60;;;7.70;99.90;;;;;;7284688;19;20192;-78
2024/02/23 09:16:25;;;;;;;10.10;1.87;;;7.70;99.90;;;;;;7285134;19;20220;-79
2024/02/23 09:18:51;;;;;;;10.47;2.00;;;7.80;99.90;;;;;;7292362;19;20525;-77
2024/02/23 09:21:17;;;;;;;9.13;1.60;;;7.80;99.90;;;;;;7306265;19;20208;-78
2024/02/23 09:23:42;;;;;;;12.60;1.90;;;7.80;99.90;;;;;;7286193;19;20782;-78
2024/02/23 09:26:10;;;;;;;14.30;2.10;;;7.90;99.90;;;;;;7284118;19;20196;-78
2024/02/23 09:28:36;;;;;;;9.27;1.60;;;8.00;99.90;;;;;;7283519;19;20599;-79
2024/02/23 09:31:03;;;;;;;9.40;1.70;;;8.20;99.90;;;;;;7286461;19;20201;-79
2024/02/23 09:33:29;;;;;;;7.40;2.63;;;8.10;99.90;;;;;;7283764;19;20201;-78
2024/02/23 09:35:54;;;;;;;11.97;2.43;;;8.30;99.90;;;;;;7282785;19;20196;-77
2024/02/23 09:38:20;;;;;;;10.30;1.70;;;8.50;99.90;;;;;;7306999;19;20222;-78
2024/02/23 09:40:46;;;;;;;9.63;1.80;;;8.80;99.90;;;;;;7301822;19;20189;-77
2024/02/23 09:43:14;;;;;;;9.27;1.70;;;8.90;99.90;;;;;;7287119;19;20193;-77
2024/02/23 09:45:40;;;;;;;9.00;1.80;;;9.00;99.90;;;;;;7285404;19;20233;-77
2024/02/23 09:48:07;;;;;;;10.17;1.60;;;9.30;99.90;;;;;;7283576;19;20201;-78
2024/02/23 09:50:33;;;;;;;14.10;2.37;;;9.30;99.90;;;;;;7285071;19;20531;-78
2024/02/23 09:53:01;;;;;;;12.63;2.20;;;9.20;99.90;;;;;;7283542;19;20199;-78
2024/02/23 09:55:27;;;;;;;10.73;2.00;;;9.00;99.90;;;;;;7286399;19;20268;-77
2024/02/23 09:57:57;;;;;;;10.07;2.33;;;9.10;99.90;;;;;;7284059;19;20198;-77
2024/02/23 10:00:24;;;;;;;9.53;2.03;;;9.00;99.90;;;;;;7285355;19;20198;-78
2024/02/23 10:02:50;;;;;;;10.07;2.70;;;9.10;99.90;;;;;;7306526;19;20228;-78
2024/02/23 10:05:17;;;;;;;10.63;3.07;;;9.10;99.90;;;;;;7286576;19;20193;-77
2024/02/23 10:07:44;;;;;;;11.33;2.90;;;9.20;99.90;;;;;;7287198;19;20277;-78
2024/02/23 10:10:10;;;;;;;14.03;2.80;;;9.00;99.90;;;;;;7286823;19;21762;-78
2024/02/23 10:12:37;;;;;;;8.13;2.10;;;9.20;99.90;;;;;;7284252;19;20556;-78
2024/02/23 10:15:04;;;;;;;9.20;1.90;;;9.30;99.90;;;;;;7283917;19;20203;-78
2024/02/23 10:17:32;;;;;;;12.53;2.33;;;9.40;99.90;;;;;;7283391;19;20303;-78
2024/02/23 10:19:59;;;;;;;6.37;2.03;;;9.50;99.90;;;;;;7281567;19;20200;-77
2024/02/23 10:22:25;;;;;;;10.73;1.77;;;9.60;99.90;;;;;;7282545;19;20235;-78
2024/02/23 10:24:51;;;;;;;9.57;1.90;;;9.80;99.90;;;;;;7291835;19;20179;-78
2024/02/23 10:27:17;;;;;;;8.67;1.67;;;9.90;99.90;;;;;;7305977;19;20202;-78
2024/02/23 10:29:43;;;;;;;9.77;1.83;;;9.90;99.90;;;;;;7282853;19;20191;-78
2024/02/23 10:32:14;;;;;;;10.37;1.73;;;9.90;99.90;;;;;;7283216;19;20574;-78
2024/02/23 10:34:42;;;;;;;10.83;1.60;;;9.70;99.90;;;;;;7281196;19;20208;-78
2024/02/23 10:37:08;;;;;;;12.70;2.10;;;9.70;99.90;;;;;;7284226;19;20200;-78
2024/02/23 10:39:37;;;;;;;10.97;1.73;;;9.80;99.90;;;;;;7282331;19;20189;-78
2024/02/23 10:42:05;;;;;;;11.27;1.97;;;9.90;99.90;;;;;;7283850;19;20207;-78
2024/02/23 10:44:31;;;;;;;9.60;1.63;;;10.10;99.90;;;;;;7284757;19;20198;-78
2024/02/23 10:46:59;;;;;;;14.10;2.30;;;10.20;99.90;;;;;;7282410;19;20670;-77
2024/02/23 10:49:27;;;;;;;7.63;1.50;;;10.40;99.90;;;;;;7283163;19;20194;-77
2024/02/23 10:51:54;;;;;;;14.93;2.27;;;10.60;99.90;;;;;;7283472;19;20183;-78
2024/02/23 10:54:21;;;;;;;9.17;1.50;;;10.40;99.90;;;;;;7305353;19;20213;-78
2024/02/23 10:56:49;;;;;;;5.43;1.37;;;10.70;99.90;;;;;;7283129;19;20682;-79
2024/02/23 10:59:18;;;;;;;10.93;1.60;;;10.60;99.90;;;;;;7281680;19;20195;-77
2024/02/23 11:01:56;;;;;;;9.27;1.77;;;10.30;99.90;;;;;;7281663;19;20179;-78
2024/02/23 11:04:23;;;;;;;9.03;1.77;;;10.40;99.90;;;;;;7261685;19;20228;-77
2024/02/23 11:06:58;;;;;;;7.47;1.30;;;10.40;99.90;;;;;;7303110;19;20188;-78
2024/02/23 11:09:24;;;;;;;8.93;1.47;;;10.40;99.90;;;;;;7261494;19;20755;-79
2024/02/23 11:11:58;;;;;;;10.23;1.60;;;10.30;99.90;;;;;;7298844;19;20189;-76
2024/02/23 11:14:37;;;;;;;8.33;1.67;;;10.30;99.90;;;;;;7282587;19;20218;-78
2024/02/23 11:17:03;;;;;;;11.57;2.10;;;10.10;99.90;;;;;;7283500;19;20214;-78
2024/02/23 11:19:34;;;;;;;11.77;2.17;;;10.00;99.90;;;;;;7283394;19;20183;-77
2024/02/23 11:22:00;;;;;;;8.00;1.60;;;10.00;99.90;;;;;;7283492;19;20195;-78
2024/02/23 11:24:29;;;;;;;8.30;2.07;;;9.90;99.90;;;;;;7282025;19;20253;-78
2024/02/23 11:27:08;;;;;;;10.30;1.90;;;10.00;99.90;;;;;;7282885;19;20194;-77
2024/02/23 11:29:34;;;;;;;11.03;2.80;;;10.00;99.90;;;;;;7283656;19;20216;-79
2024/02/23 11:32:03;;;;;;;14.73;2.23;;;9.90;99.90;;;;;;7283407;19;20294;-79
2024/02/23 11:34:30;;;;;;;8.73;1.53;;;9.90;99.90;;;;;;7281385;19;20750;-79
2024/02/23 11:36:57;;;;;;;9.13;1.83;;;9.90;99.90;;;;;;7282829;19;20207;-78
2024/02/23 11:39:23;;;;;;;8.57;2.20;;;9.80;99.90;;;;;;7282184;19;20200;-77
2024/02/23 11:41:50;;;;;;;12.93;2.87;;;9.70;99.90;;;;;;7304041;19;20181;-78
2024/02/23 11:44:17;;;;;;;13.03;3.13;;;9.80;99.90;;;;;;7283446;19;20183;-78
2024/02/23 11:46:46;;;;;;;10.30;3.10;;;9.90;99.90;;;;;;7281961;19;20197;-78
2024/02/23 11:49:14;;;;;;;15.23;2.93;;;10.10;99.90;;;;;;7281963;19;20194;-79
2024/02/23 11:51:40;;;;;;;12.63;2.80;;;10.00;99.90;;;;;;7287802;19;20191;-79
2024/02/23 11:54:06;;;;;;;12.27;3.30;;;10.20;99.90;;;;;;7289435;19;20195;-79
2024/02/23 11:56:32;;;;;;;10.13;2.43;;;10.20;99.90;;;;;;7288265;19;20187;-79
2024/02/23 11:58:58;;;;;;;12.30;3.13;;;10.30;99.90;;;;;;7289485;19;20198;-79
2024/02/23 12:01:23;;;;;;;12.93;3.30;;;10.50;99.90;;;;;;7288546;19;20223;-78
2024/02/23 12:03:49;;;;;;;10.97;3.20;;;10.80;99.90;;;;;;7310633;19;20719;-78
2024/02/23 12:06:15;;;;;;;11.83;3.20;;;10.50;99.90;;;;;;7289089;19;20204;-78
2024/02/23 12:08:41;;;;;;;11.60;3.10;;;10.50;99.90;;;;;;7289157;19;20185;-79
2024/02/23 12:11:08;;;;;;;12.37;2.80;;;10.60;99.90;;;;;;7288108;19;20196;-78
2024/02/23 12:13:38;;;;;;;10.03;2.20;;;10.80;99.90;;;;;;7287539;19;20214;-79
2024/02/23 12:16:05;;;;;;;12.60;2.70;;;10.90;99.90;;;;;;7288257;19;21006;-78
2024/02/23 12:18:34;;;;;;;10.07;2.63;;;11.20;99.90;;;;;;7288457;19;20212;-78
2024/02/23 12:21:06;;;;;;;12.43;2.57;;;11.30;99.90;;;;;;7287418;19;20575;-78
2024/02/23 12:23:48;;;;;;;6.73;2.30;;;11.10;99.90;;;;;;7288855;19;20207;-77
2024/02/23 12:26:18;;;;;;;9.10;2.20;;;11.10;99.90;;;;;;7287376;19;20196;-77
2024/02/23 12:28:44;;;;;;;10.70;2.73;;;11.00;99.90;;;;;;7286299;19;20235;-78
2024/02/23 12:31:10;;;;;;;12.87;3.00;;;10.90;99.90;;;;;;7288431;19;20232;-78
2024/02/23 12:33:39;;;;;;;11.30;2.50;;;10.90;99.90;;;;;;7285900;19;20244;-77
2024/02/23 12:36:06;;;;;;;7.63;1.77;;;10.90;99.90;;;;;;7287503;19;20199;-79
2024/02/23 12:38:32;;;;;;;9.23;2.13;;;10.70;99.90;;;;;;7286507;19;20187;-80
2024/02/23 12:40:58;;;;;;;7.80;1.63;;;10.80;99.90;;;;;;7285607;19;20307;-79
2024/02/23 12:43:24;;;;;;;7.53;1.60;;;11.00;99.90;;;;;;7287498;19;20244;-79
2024/02/23 12:46:01;;;;;;;6.47;1.13;;;11.20;99.90;;;;;;7308374;19;20218;-76
2024/02/23 12:48:26;;;;;;;10.20;1.70;;;11.70;99.90;;;;;;7288234;19;20197;-79